createdAt,value
2023-02-20T00:02:21.725Z,11.47
2023-02-20T00:06:25.597Z,11.51
2023-02-20T00:10:36.894Z,11.52
2023-02-20T00:14:40.486Z,11.53
2023-02-20T00:18:43.876Z,11.55
2023-02-20T00:22:48.079Z,11.57
2023-02-20T00:26:53.588Z,11.62
2023-02-20T00:30:57.805Z,11.63
2023-02-20T00:35:01.036Z,11.65
2023-02-20T00:39:04.991Z,11.64
2023-02-20T00:43:09.862Z,11.67
2023-02-20T00:47:13.243Z,11.66
2023-02-20T00:51:17.205Z,11.68
2023-02-20T00:55:20.561Z,11.69
2023-02-20T00:59:25.488Z,11.70
2023-02-20T01:03:28.630Z,11.70
2023-02-20T01:07:32.046Z,11.67
2023-02-20T01:11:36.041Z,11.68
2023-02-20T01:15:40.848Z,11.64
2023-02-20T01:19:46.149Z,11.64
2023-02-20T01:23:49.265Z,11.60
2023-02-20T01:27:52.855Z,11.59
2023-02-20T01:31:58.696Z,11.58
2023-02-20T01:36:01.845Z,11.56
2023-02-20T01:40:06.245Z,11.55
2023-02-20T01:44:19.627Z,11.52
2023-02-20T01:48:26.289Z,11.53
2023-02-20T01:52:32.154Z,11.53
2023-02-20T01:56:35.849Z,11.51
2023-02-20T02:00:40.081Z,11.48
2023-02-20T02:04:46.906Z,11.53
2023-02-20T02:08:50.699Z,11.53
2023-02-20T02:12:56.330Z,11.56
2023-02-20T02:17:14.602Z,11.57
2023-02-20T02:21:59.743Z,11.51
2023-02-20T02:26:20.062Z,11.54
2023-02-20T02:30:54.365Z,11.51
2023-02-20T02:35:33.547Z,11.48
2023-02-20T02:40:03.634Z,11.49
2023-02-20T02:44:14.601Z,11.50
2023-02-20T02:48:24.238Z,11.51
2023-02-20T02:52:49.354Z,11.52
2023-02-20T02:57:16.656Z,11.54
2023-02-20T03:01:23.021Z,11.56
2023-02-20T03:05:40.526Z,11.59
2023-02-20T03:09:48.837Z,11.60
2023-02-20T03:14:13.599Z,11.61
2023-02-20T03:18:24.812Z,11.56
2023-02-20T03:22:32.198Z,11.58
2023-02-20T03:26:39.894Z,11.57
2023-02-20T03:30:48.843Z,11.56
2023-02-20T03:35:11.599Z,11.59
2023-02-20T03:39:37.300Z,11.59
2023-02-20T03:43:42.469Z,11.55
2023-02-20T03:47:53.214Z,11.59
2023-02-20T03:51:57.055Z,11.57
2023-02-20T03:56:06.386Z,11.58
2023-02-20T04:00:13.248Z,11.55
2023-02-20T04:04:23.560Z,11.57
2023-02-20T04:08:35.981Z,11.56
2023-02-20T04:12:43.843Z,11.52
2023-02-20T04:16:51.522Z,11.50
2023-02-20T04:20:59.659Z,11.51
2023-02-20T04:25:09.220Z,11.47
2023-02-20T04:29:12.661Z,11.47
2023-02-20T04:33:17.313Z,11.43
2023-02-20T04:37:22.611Z,11.45
2023-02-20T04:41:26.466Z,11.46
2023-02-20T04:45:29.784Z,11.46
2023-02-20T04:49:33.138Z,11.41
2023-02-20T04:53:38.311Z,11.41
2023-02-20T04:57:41.769Z,11.40
2023-02-20T05:01:48.392Z,11.38
2023-02-20T05:05:51.669Z,11.35
2023-02-20T05:09:56.129Z,11.36
2023-02-20T05:14:00.098Z,11.34
2023-02-20T05:18:03.445Z,11.33
2023-02-20T05:22:23.491Z,11.33
2023-02-20T05:26:28.679Z,11.35
2023-02-20T05:30:32.262Z,11.32
2023-02-20T05:34:35.439Z,11.32
2023-02-20T05:38:39.052Z,11.29
2023-02-20T05:42:44.697Z,11.27
2023-02-20T05:46:47.832Z,11.20
2023-02-20T05:50:51.629Z,11.16
2023-02-20T05:54:55.000Z,11.12
2023-02-20T05:59:00.328Z,11.10
2023-02-20T06:03:03.422Z,11.05
2023-02-20T06:07:10.675Z,10.99
2023-02-20T06:11:14.888Z,10.95
2023-02-20T06:15:19.871Z,10.90
2023-02-20T06:19:24.705Z,10.85
2023-02-20T06:23:27.897Z,10.84
2023-02-20T06:27:31.189Z,10.89
2023-02-20T06:31:36.236Z,10.96
2023-02-20T06:35:39.634Z,11.05
2023-02-20T06:39:46.000Z,11.16
2023-02-20T06:43:49.211Z,11.27
2023-02-20T06:47:53.774Z,11.35
2023-02-20T06:51:57.351Z,11.42
2023-02-20T06:56:00.921Z,11.46
2023-02-20T07:00:05.809Z,11.52
2023-02-20T07:04:17.342Z,11.58
2023-02-20T07:08:21.138Z,11.63
2023-02-20T07:12:24.583Z,11.73
2023-02-20T07:16:27.879Z,11.92
2023-02-20T07:20:32.892Z,12.14
2023-02-20T07:24:37.374Z,12.35
2023-02-20T07:28:41.329Z,12.49
2023-02-20T07:32:44.693Z,12.52
2023-02-20T07:36:49.136Z,12.50
2023-02-20T07:40:52.626Z,12.44
2023-02-20T07:44:56.386Z,12.41
2023-02-20T07:49:01.023Z,12.44
2023-02-20T07:53:05.743Z,12.48
2023-02-20T07:57:09.151Z,12.49
2023-02-20T08:01:12.448Z,12.58
2023-02-20T08:05:16.610Z,12.71
2023-02-20T08:09:21.464Z,12.70
2023-02-20T08:13:24.820Z,12.71
2023-02-20T08:17:44.248Z,12.72
2023-02-20T08:21:49.039Z,12.70
2023-02-20T08:25:53.749Z,12.67
2023-02-20T08:29:56.789Z,12.63
2023-02-20T08:34:01.067Z,12.62
2023-02-20T08:38:04.894Z,12.59
2023-02-20T08:42:09.897Z,12.59
2023-02-20T08:46:14.526Z,12.62
2023-02-20T08:50:19.108Z,12.67
2023-02-20T08:54:23.660Z,12.68
2023-02-20T08:58:28.500Z,12.73
2023-02-20T09:02:32.430Z,12.78
2023-02-20T09:06:36.103Z,12.86
2023-02-20T09:10:39.701Z,12.93
2023-02-20T09:14:45.096Z,13.01
2023-02-20T09:18:49.043Z,13.05
2023-02-20T09:22:52.601Z,13.10
2023-02-20T09:26:56.997Z,13.12
2023-02-20T09:31:02.695Z,13.14
2023-02-20T09:35:06.616Z,13.14
2023-02-20T09:39:09.926Z,13.15
2023-02-20T09:43:27.770Z,13.17
2023-02-20T09:47:46.601Z,13.21
2023-02-20T09:51:54.630Z,13.27
2023-02-20T09:56:00.460Z,13.34
2023-02-20T10:00:10.016Z,13.41
2023-02-20T10:04:19.287Z,13.53
2023-02-20T10:08:24.093Z,13.59
2023-02-20T10:12:34.260Z,13.66
2023-02-20T10:16:47.216Z,13.71
2023-02-20T10:20:56.175Z,13.81
2023-02-20T10:25:13.181Z,13.90
2023-02-20T10:29:23.201Z,13.97
2023-02-20T10:33:33.315Z,14.03
2023-02-20T10:37:47.736Z,14.12
2023-02-20T10:41:57.175Z,14.19
2023-02-20T10:46:07.983Z,14.26
2023-02-20T10:50:17.733Z,14.34
2023-02-20T10:54:29.806Z,14.49
2023-02-20T10:58:37.722Z,14.76
2023-02-20T11:02:45.549Z,14.99
2023-02-20T11:06:56.150Z,15.18
2023-02-20T11:11:12.187Z,15.30
2023-02-20T11:15:19.863Z,15.33
2023-02-20T11:19:28.362Z,15.27
2023-02-20T11:23:38.784Z,15.19
2023-02-20T11:27:43.998Z,15.12
2023-02-20T11:31:48.026Z,15.10
2023-02-20T11:35:53.512Z,15.14
2023-02-20T11:40:02.050Z,15.28
2023-02-20T11:44:28.064Z,15.39
2023-02-20T11:48:31.797Z,15.41
2023-02-20T11:52:34.888Z,15.46
2023-02-20T11:56:38.891Z,15.54
2023-02-20T12:00:52.452Z,15.66
2023-02-20T12:05:14.095Z,15.81
2023-02-20T12:09:20.609Z,15.95
2023-02-20T12:13:24.377Z,16.09
2023-02-20T12:17:37.494Z,16.24
2023-02-20T12:21:58.151Z,16.37
2023-02-20T12:26:22.027Z,16.53
2023-02-20T12:30:35.912Z,16.69
2023-02-20T12:35:00.460Z,16.84
2023-02-20T12:39:09.121Z,16.93
2023-02-20T12:43:28.607Z,17.05
2023-02-20T12:47:34.342Z,17.15
2023-02-20T12:51:45.323Z,17.23
2023-02-20T12:56:00.824Z,17.37
2023-02-20T13:00:27.783Z,17.46
2023-02-20T13:04:47.001Z,17.55
2023-02-20T13:09:06.978Z,17.54
2023-02-20T13:13:12.628Z,17.50
2023-02-20T13:17:29.985Z,17.44
2023-02-20T13:21:34.619Z,17.28
2023-02-20T13:25:52.801Z,17.20
2023-02-20T13:30:02.061Z,17.20
2023-02-20T13:34:34.826Z,17.28
2023-02-20T13:38:38.111Z,17.39
2023-02-20T13:42:42.698Z,17.45
2023-02-20T13:47:03.082Z,17.37
2023-02-20T13:51:32.141Z,17.21
2023-02-20T13:55:36.217Z,16.95
2023-02-20T13:59:42.233Z,16.71
2023-02-20T14:03:45.939Z,16.49
2023-02-20T14:07:49.426Z,16.32
2023-02-20T14:11:56.398Z,16.32
2023-02-20T14:16:01.917Z,16.41
2023-02-20T14:20:14.310Z,16.62
2023-02-20T14:24:21.857Z,16.86
2023-02-20T14:28:26.326Z,16.99
2023-02-20T14:32:31.490Z,17.17
2023-02-20T14:36:46.037Z,17.45
2023-02-20T14:40:51.321Z,17.78
2023-02-20T14:45:01.516Z,18.11
2023-02-20T14:49:11.198Z,18.36
2023-02-20T14:53:18.337Z,18.52
2023-02-20T14:57:22.699Z,18.61
2023-02-20T15:01:40.601Z,18.62
2023-02-20T15:05:45.227Z,18.54
2023-02-20T15:09:51.490Z,18.46
2023-02-20T15:13:55.548Z,18.35
2023-02-20T15:18:08.944Z,18.28
2023-02-20T15:22:33.661Z,18.19
2023-02-20T15:26:38.813Z,18.06
2023-02-20T15:31:06.746Z,17.91
2023-02-20T15:35:18.025Z,17.74
2023-02-20T15:39:22.974Z,17.54
2023-02-20T15:43:38.120Z,17.31
2023-02-20T15:47:48.781Z,17.07
2023-02-20T15:51:56.206Z,16.83
2023-02-20T15:56:04.712Z,16.56
2023-02-20T16:00:09.570Z,16.32
2023-02-20T16:04:16.671Z,16.07
2023-02-20T16:08:20.588Z,15.80
2023-02-20T16:12:32.322Z,15.53
2023-02-20T16:16:39.417Z,15.24
2023-02-20T16:20:42.431Z,14.96
2023-02-20T16:24:47.372Z,14.69
2023-02-20T16:28:56.962Z,14.45
2023-02-20T16:33:00.503Z,14.22
2023-02-20T16:37:03.959Z,14.02
2023-02-20T16:41:07.310Z,13.83
2023-02-20T16:45:15.797Z,13.65
2023-02-20T16:49:19.013Z,13.49
2023-02-20T16:53:22.527Z,13.39
2023-02-20T16:57:27.081Z,13.30
2023-02-20T17:01:31.863Z,13.22
2023-02-20T17:05:36.502Z,13.13
2023-02-20T17:09:44.241Z,13.04
2023-02-20T17:13:48.973Z,12.92
2023-02-20T17:17:54.604Z,12.82
2023-02-20T17:21:58.024Z,12.70
2023-02-20T17:26:01.216Z,12.63
2023-02-20T17:30:05.442Z,12.58
2023-02-20T17:34:10.692Z,12.56
2023-02-20T17:38:14.071Z,12.55
2023-02-20T17:42:17.000Z,12.59
2023-02-20T17:46:21.100Z,12.66
2023-02-20T17:50:26.030Z,12.76
2023-02-20T17:54:32.072Z,12.82
2023-02-20T17:58:36.423Z,12.86
2023-02-20T18:02:39.904Z,12.88
2023-02-20T18:06:45.080Z,12.88
2023-02-20T18:10:48.870Z,12.88
2023-02-20T18:14:52.708Z,12.91
2023-02-20T18:18:56.860Z,12.93
2023-02-20T18:23:02.140Z,12.92
2023-02-20T18:27:06.112Z,12.84
2023-02-20T18:31:10.809Z,12.73
2023-02-20T18:35:15.853Z,12.60
2023-02-20T18:39:21.181Z,12.45
2023-02-20T18:43:24.573Z,12.29
2023-02-20T18:47:28.176Z,12.12
2023-02-20T18:51:33.069Z,11.93
2023-02-20T18:55:38.360Z,11.78
2023-02-20T18:59:45.508Z,11.63
2023-02-20T19:03:49.424Z,11.52
2023-02-20T19:07:53.257Z,11.41
2023-02-20T19:12:00.340Z,11.33
2023-02-20T19:16:03.574Z,11.24
2023-02-20T19:20:11.906Z,11.16
2023-02-20T19:24:15.473Z,11.03
2023-02-20T19:28:19.877Z,10.92
2023-02-20T19:32:23.548Z,10.82
2023-02-20T19:36:27.484Z,10.77
2023-02-20T19:40:31.372Z,10.73
2023-02-20T19:44:36.696Z,10.68
2023-02-20T19:48:39.837Z,10.55
2023-02-20T19:52:44.198Z,10.40
2023-02-20T19:56:48.765Z,10.27
2023-02-20T20:00:53.747Z,10.18
2023-02-20T20:04:57.065Z,10.11
2023-02-20T20:09:13.495Z,10.01
2023-02-20T20:13:18.689Z,9.87
2023-02-20T20:17:23.669Z,9.76
2023-02-20T20:21:27.054Z,9.67
2023-02-20T20:25:30.853Z,9.62
2023-02-20T20:29:34.751Z,9.59
2023-02-20T20:33:39.562Z,9.60
2023-02-20T20:37:42.543Z,9.66
2023-02-20T20:41:46.053Z,9.72
2023-02-20T20:45:49.353Z,9.79
2023-02-20T20:49:54.665Z,9.88
2023-02-20T20:54:01.417Z,9.99
2023-02-20T21:02:08.441Z,10.42
2023-02-20T21:06:13.554Z,10.65
2023-02-20T21:10:17.720Z,10.85
2023-02-20T21:14:23.161Z,11.01
2023-02-20T21:18:26.284Z,11.13
2023-02-20T21:22:30.979Z,11.18
2023-02-20T21:26:34.784Z,11.20
2023-02-20T21:30:47.993Z,11.23
2023-02-20T21:34:51.286Z,11.31
2023-02-20T21:38:56.283Z,11.40
2023-02-20T21:43:16.906Z,11.42
2023-02-20T21:47:20.495Z,11.39
2023-02-20T21:51:23.783Z,11.29
2023-02-20T21:55:28.137Z,11.16
2023-02-20T21:59:30.317Z,11.01
2023-02-20T22:03:32.331Z,10.85
2023-02-20T22:07:52.904Z,10.68
2023-02-20T22:12:14.897Z,10.49
2023-02-20T22:16:37.369Z,10.30
2023-02-20T22:20:58.419Z,10.18
2023-02-20T22:25:18.863Z,10.07
2023-02-20T22:29:40.803Z,9.96
2023-02-20T22:34:01.419Z,9.89
2023-02-20T22:38:21.670Z,9.81
2023-02-20T22:42:42.465Z,9.77
2023-02-20T22:47:04.278Z,9.75
2023-02-20T22:51:26.463Z,9.74
2023-02-20T22:55:46.871Z,9.75
2023-02-20T23:00:11.944Z,9.77
2023-02-20T23:04:34.032Z,9.75
2023-02-20T23:08:54.440Z,9.73
2023-02-20T23:13:14.864Z,9.71
2023-02-20T23:17:37.654Z,9.70
2023-02-20T23:22:04.001Z,9.73
2023-02-20T23:26:25.431Z,9.76
2023-02-20T23:35:20.208Z,9.74
2023-02-20T23:39:42.573Z,9.69
2023-02-20T23:44:03.244Z,9.61
2023-02-20T23:48:24.412Z,9.56
2023-02-20T23:52:44.989Z,9.52
2023-02-20T23:57:08.753Z,9.55
